Terminal Aerodrome Forecast
Issued by NWS

Home | Current Version | Previous Version | Graphics & Text | Print | Product List | Glossary On
Versions: 1 2 3 4 5 6 7 8 9 10 11 12 13 14 15 16 17 18 19 20 21 22 23 24 25 26 27 28 29 30 31 32 33 34
000
FTUS43 KLOT 301553 AAB
TAFORD
TAF AMD
KORD 301553Z 3016/0118 31010KT P6SM SCT020
     FM302030 05010KT P6SM VCSH BKN025
     FM302300 03004KT P6SM SCT025
     FM010600 09006KT P6SM SCT020
     FM011600 06003KT P6SM SCT020 BKN180=

USA.gov is the U.S. government's official web portal to all federal, state and local government web resources and services.